SHT22A EGLL-EGJB
Flight info
| Callsign | SHT22A |
|---|---|
| Flight time | 0h 43m |
| Altitude | 18000 |
| Route | N0376F180 GASGU2J GASGU N514 EVTES N621 SAM/N0370F180 N63 LELNA LELNA1V |
| Aircraft | A320/M-SDE3FGIJ1KRWXY/SB1 |
Departure
| Time | 2026-05-06 18:27 |
|---|---|
| Airport | London Heathrow Airport (EGLL) |
Arrival
| Time | 2026-05-06 19:10 |
|---|---|
| Airport | Guernsey Airport (EGJB) |
| Time | Latitude | Longitude | Altitude | Speed | Heading |
|---|---|---|---|---|---|
| 2026-05-06 17:11 | 51.46930 | -0.48859 | 86 ft | 0 kts | 360° |
| 2026-05-06 18:18 | 51.46929 | -0.48859 | 86 ft | 2 kts | 360° |
| 2026-05-06 18:18 | 51.46904 | -0.48859 | 86 ft | 4 kts | 360° |
| 2026-05-06 18:19 | 51.46885 | -0.48858 | 86 ft | 4 kts | 326° |
| 2026-05-06 18:19 | 51.46876 | -0.48830 | 86 ft | 3 kts | 270° |
| 2026-05-06 18:19 | 51.46876 | -0.48788 | 87 ft | 4 kts | 270° |
| 2026-05-06 18:19 | 51.46876 | -0.48744 | 86 ft | 4 kts | 270° |
| 2026-05-06 18:20 | 51.46877 | -0.48711 | 86 ft | 4 kts | 270° |
| 2026-05-06 18:20 | 51.46877 | -0.48700 | 86 ft | 0 kts | 270° |
| 2026-05-06 18:22 | 51.46877 | -0.48706 | 86 ft | 2 kts | 269° |
| 2026-05-06 18:22 | 51.46857 | -0.48746 | 86 ft | 7 kts | 204° |
| 2026-05-06 18:23 | 51.46802 | -0.48750 | 88 ft | 9 kts | 179° |
| 2026-05-06 18:23 | 51.46735 | -0.48749 | 86 ft | 9 kts | 180° |
| 2026-05-06 18:23 | 51.46702 | -0.48749 | 86 ft | 0 kts | 180° |
| 2026-05-06 18:23 | 51.46690 | -0.48749 | 86 ft | 4 kts | 179° |
| 2026-05-06 18:24 | 51.46653 | -0.48747 | 86 ft | 6 kts | 179° |
| 2026-05-06 18:24 | 51.46606 | -0.48763 | 90 ft | 8 kts | 198° |
| 2026-05-06 18:24 | 51.46549 | -0.48790 | 88 ft | 9 kts | 186° |
| 2026-05-06 18:24 | 51.46490 | -0.48742 | 86 ft | 11 kts | 124° |
| 2026-05-06 18:25 | 51.46478 | -0.48652 | 86 ft | 0 kts | 89° |
| 2026-05-06 18:25 | 51.46478 | -0.48647 | 86 ft | 0 kts | 89° |
| 2026-05-06 18:26 | 51.46479 | -0.48635 | 86 ft | 13 kts | 89° |
| 2026-05-06 18:26 | 51.46484 | -0.48098 | 89 ft | 81 kts | 89° |
| 2026-05-06 18:26 | 51.46482 | -0.46892 | 90 ft | 132 kts | 90° |
| 2026-05-06 18:27 | 51.46491 | -0.45203 | 127 ft | 168 kts | 86° |
| 2026-05-06 18:27 | 51.46506 | -0.43269 | 564 ft | 183 kts | 86° |
| 2026-05-06 18:27 | 51.46317 | -0.41139 | 878 ft | 209 kts | 114° |
| 2026-05-06 18:27 | 51.45502 | -0.39037 | 1291 ft | 234 kts | 122° |
| 2026-05-06 18:28 | 51.44520 | -0.36801 | 1765 ft | 253 kts | 123° |
| 2026-05-06 18:28 | 51.43407 | -0.34601 | 2537 ft | 262 kts | 136° |
| 2026-05-06 18:28 | 51.41817 | -0.33139 | 3415 ft | 268 kts | 162° |
| 2026-05-06 18:28 | 51.39959 | -0.32828 | 4274 ft | 272 kts | 188° |
| 2026-05-06 18:29 | 51.38174 | -0.33800 | 5147 ft | 273 kts | 213° |
| 2026-05-06 18:29 | 51.36693 | -0.35725 | 5767 ft | 275 kts | 224° |
| 2026-05-06 18:29 | 51.35271 | -0.37781 | 5955 ft | 275 kts | 224° |
| 2026-05-06 18:29 | 51.33866 | -0.39834 | 6001 ft | 274 kts | 225° |
| 2026-05-06 18:30 | 51.32463 | -0.41889 | 5996 ft | 272 kts | 224° |
| 2026-05-06 18:30 | 51.31137 | -0.44045 | 6005 ft | 271 kts | 234° |
| 2026-05-06 18:30 | 51.30207 | -0.46659 | 6189 ft | 271 kts | 252° |
| 2026-05-06 18:30 | 51.29676 | -0.49536 | 7062 ft | 271 kts | 257° |
| 2026-05-06 18:31 | 51.29156 | -0.52453 | 7884 ft | 274 kts | 256° |
| 2026-05-06 18:31 | 51.28617 | -0.55401 | 8690 ft | 278 kts | 256° |
| 2026-05-06 18:31 | 51.28061 | -0.58388 | 9489 ft | 282 kts | 255° |
| 2026-05-06 18:31 | 51.27475 | -0.61410 | 10221 ft | 287 kts | 254° |
| 2026-05-06 18:32 | 51.26856 | -0.64567 | 10467 ft | 310 kts | 255° |
| 2026-05-06 18:32 | 51.26188 | -0.67962 | 10649 ft | 331 kts | 254° |
| 2026-05-06 18:32 | 51.25495 | -0.71484 | 11156 ft | 339 kts | 254° |
| 2026-05-06 18:32 | 51.24783 | -0.75096 | 11795 ft | 343 kts | 254° |
| 2026-05-06 18:33 | 51.24064 | -0.78733 | 12464 ft | 345 kts | 254° |
| 2026-05-06 18:33 | 51.23340 | -0.82406 | 13134 ft | 348 kts | 254° |
| 2026-05-06 18:33 | 51.22609 | -0.86112 | 13816 ft | 351 kts | 254° |
| 2026-05-06 18:33 | 51.21876 | -0.89840 | 14412 ft | 354 kts | 254° |
| 2026-05-06 18:34 | 51.21129 | -0.93553 | 14981 ft | 357 kts | 251° |
| 2026-05-06 18:34 | 51.20040 | -0.97141 | 15541 ft | 362 kts | 239° |
| 2026-05-06 18:34 | 51.18552 | -1.00391 | 16103 ft | 365 kts | 233° |
| 2026-05-06 18:34 | 51.16982 | -1.03593 | 16673 ft | 368 kts | 233° |
| 2026-05-06 18:35 | 51.15406 | -1.06817 | 17257 ft | 370 kts | 233° |
| 2026-05-06 18:35 | 51.13819 | -1.10070 | 17811 ft | 373 kts | 233° |
| 2026-05-06 18:35 | 51.12225 | -1.13334 | 17974 ft | 375 kts | 233° |
| 2026-05-06 18:35 | 51.10592 | -1.16679 | 18009 ft | 388 kts | 233° |
| 2026-05-06 18:36 | 51.08880 | -1.20017 | 18004 ft | 391 kts | 228° |
| 2026-05-06 18:36 | 51.06847 | -1.22907 | 18008 ft | 393 kts | 218° |
| 2026-05-06 18:36 | 51.04563 | -1.25298 | 17993 ft | 394 kts | 214° |
| 2026-05-06 18:36 | 51.02281 | -1.27614 | 17996 ft | 394 kts | 214° |
| 2026-05-06 18:37 | 50.99975 | -1.29967 | 17989 ft | 394 kts | 214° |
| 2026-05-06 18:37 | 50.98419 | -1.31557 | 18006 ft | 394 kts | 214° |
| 2026-05-06 18:37 | 50.95347 | -1.34634 | 18008 ft | 395 kts | 210° |
| 2026-05-06 18:37 | 50.92904 | -1.36627 | 18005 ft | 395 kts | 208° |
| 2026-05-06 18:38 | 50.90448 | -1.38591 | 18004 ft | 395 kts | 208° |
| 2026-05-06 18:38 | 50.87989 | -1.40552 | 18007 ft | 395 kts | 208° |
| 2026-05-06 18:38 | 50.85531 | -1.42509 | 17998 ft | 395 kts | 208° |
| 2026-05-06 18:38 | 50.83071 | -1.44466 | 18000 ft | 395 kts | 208° |
| 2026-05-06 18:39 | 50.80613 | -1.46419 | 17998 ft | 395 kts | 208° |
| 2026-05-06 18:39 | 50.78156 | -1.48370 | 18000 ft | 395 kts | 208° |
| 2026-05-06 18:39 | 50.75692 | -1.50321 | 17997 ft | 395 kts | 208° |
| 2026-05-06 18:40 | 50.70770 | -1.54210 | 17998 ft | 395 kts | 208° |
| 2026-05-06 18:40 | 50.68312 | -1.56159 | 17997 ft | 395 kts | 208° |
| 2026-05-06 18:40 | 50.65853 | -1.58109 | 18002 ft | 395 kts | 208° |
| 2026-05-06 18:40 | 50.63398 | -1.60051 | 17994 ft | 395 kts | 208° |
| 2026-05-06 18:41 | 50.60937 | -1.61996 | 17989 ft | 395 kts | 208° |
| 2026-05-06 18:41 | 50.58474 | -1.63937 | 17993 ft | 395 kts | 208° |
| 2026-05-06 18:41 | 50.56016 | -1.65868 | 17992 ft | 395 kts | 208° |
| 2026-05-06 18:41 | 50.53554 | -1.67801 | 17992 ft | 395 kts | 208° |
| 2026-05-06 18:42 | 50.51094 | -1.69731 | 17995 ft | 395 kts | 208° |
| 2026-05-06 18:42 | 50.48661 | -1.71636 | 17995 ft | 395 kts | 207° |
| 2026-05-06 18:42 | 50.46196 | -1.73564 | 17997 ft | 395 kts | 208° |
| 2026-05-06 18:42 | 50.43735 | -1.75488 | 17997 ft | 395 kts | 208° |
| 2026-05-06 18:43 | 50.41273 | -1.77410 | 17994 ft | 395 kts | 207° |
| 2026-05-06 18:43 | 50.38812 | -1.79332 | 18000 ft | 395 kts | 208° |
| 2026-05-06 18:43 | 50.36349 | -1.81252 | 18002 ft | 395 kts | 208° |
| 2026-05-06 18:43 | 50.33886 | -1.83171 | 18002 ft | 395 kts | 208° |
| 2026-05-06 18:44 | 50.31426 | -1.85086 | 17999 ft | 395 kts | 207° |
| 2026-05-06 18:44 | 50.28966 | -1.86994 | 18000 ft | 395 kts | 207° |
| 2026-05-06 18:44 | 50.26502 | -1.88905 | 18002 ft | 395 kts | 207° |
| 2026-05-06 18:44 | 50.24040 | -1.90812 | 18002 ft | 395 kts | 207° |
| 2026-05-06 18:45 | 50.21581 | -1.92710 | 18005 ft | 395 kts | 207° |
| 2026-05-06 18:45 | 50.19133 | -1.94597 | 17843 ft | 387 kts | 207° |
| 2026-05-06 18:45 | 50.16751 | -1.96430 | 17560 ft | 376 kts | 207° |
| 2026-05-06 18:45 | 50.15212 | -1.97616 | 17373 ft | 368 kts | 207° |
| 2026-05-06 18:46 | 50.12220 | -1.99924 | 17034 ft | 358 kts | 207° |
| 2026-05-06 18:46 | 50.09992 | -2.01640 | 16777 ft | 356 kts | 207° |
| 2026-05-06 18:46 | 50.07775 | -2.03345 | 16512 ft | 355 kts | 207° |
| 2026-05-06 18:46 | 50.05563 | -2.05043 | 16251 ft | 354 kts | 207° |
| 2026-05-06 18:47 | 50.03359 | -2.06731 | 15994 ft | 353 kts | 207° |
| 2026-05-06 18:47 | 50.01161 | -2.08416 | 15733 ft | 351 kts | 207° |
| 2026-05-06 18:47 | 49.99054 | -2.10312 | 15470 ft | 349 kts | 216° |
| 2026-05-06 18:47 | 49.97165 | -2.12673 | 15231 ft | 347 kts | 224° |
| 2026-05-06 18:48 | 49.95522 | -2.15405 | 14987 ft | 346 kts | 229° |
| 2026-05-06 18:48 | 49.94466 | -2.17265 | 14813 ft | 345 kts | 229° |
| 2026-05-06 18:48 | 49.92874 | -2.20054 | 14574 ft | 344 kts | 229° |
| 2026-05-06 18:48 | 49.91286 | -2.22828 | 14328 ft | 343 kts | 229° |
| 2026-05-06 18:49 | 49.89190 | -2.26493 | 14007 ft | 342 kts | 229° |
| 2026-05-06 18:49 | 49.87616 | -2.29245 | 13759 ft | 341 kts | 229° |
| 2026-05-06 18:49 | 49.86045 | -2.31986 | 13490 ft | 339 kts | 229° |
| 2026-05-06 18:49 | 49.84475 | -2.34712 | 13224 ft | 338 kts | 229° |
| 2026-05-06 18:50 | 49.82912 | -2.37418 | 12958 ft | 336 kts | 229° |
| 2026-05-06 18:50 | 49.81880 | -2.39206 | 12787 ft | 335 kts | 229° |
| 2026-05-06 18:50 | 49.80328 | -2.41893 | 12519 ft | 334 kts | 229° |
| 2026-05-06 18:50 | 49.78278 | -2.45441 | 12172 ft | 332 kts | 229° |
| 2026-05-06 18:51 | 49.76743 | -2.48095 | 11921 ft | 330 kts | 229° |
| 2026-05-06 18:51 | 49.75705 | -2.49888 | 11740 ft | 330 kts | 229° |
| 2026-05-06 18:51 | 49.74181 | -2.52519 | 11494 ft | 328 kts | 229° |
| 2026-05-06 18:51 | 49.72640 | -2.55122 | 11236 ft | 327 kts | 224° |
| 2026-05-06 18:52 | 49.70864 | -2.57232 | 10986 ft | 326 kts | 212° |
| 2026-05-06 18:52 | 49.68799 | -2.58662 | 10739 ft | 327 kts | 198° |
| 2026-05-06 18:52 | 49.66562 | -2.59327 | 10490 ft | 327 kts | 185° |
| 2026-05-06 18:52 | 49.64283 | -2.59444 | 10245 ft | 327 kts | 183° |
| 2026-05-06 18:53 | 49.62027 | -2.59547 | 10000 ft | 320 kts | 183° |
| 2026-05-06 18:53 | 49.59861 | -2.59646 | 9739 ft | 302 kts | 183° |
| 2026-05-06 18:53 | 49.57814 | -2.59739 | 9468 ft | 286 kts | 183° |
| 2026-05-06 18:53 | 49.55872 | -2.59825 | 9199 ft | 272 kts | 183° |
| 2026-05-06 18:54 | 49.54024 | -2.59906 | 8936 ft | 260 kts | 183° |
| 2026-05-06 18:54 | 49.52247 | -2.59988 | 8671 ft | 252 kts | 183° |
| 2026-05-06 18:54 | 49.50501 | -2.60070 | 8409 ft | 250 kts | 183° |
| 2026-05-06 18:54 | 49.48766 | -2.60150 | 8144 ft | 248 kts | 184° |
| 2026-05-06 18:55 | 49.47047 | -2.60378 | 7884 ft | 246 kts | 196° |
| 2026-05-06 18:55 | 49.45527 | -2.61395 | 7630 ft | 241 kts | 217° |
| 2026-05-06 18:55 | 49.44337 | -2.63157 | 7386 ft | 237 kts | 237° |
| 2026-05-06 18:55 | 49.43625 | -2.65422 | 7131 ft | 235 kts | 256° |
| 2026-05-06 18:56 | 49.43426 | -2.67898 | 6881 ft | 234 kts | 267° |
| 2026-05-06 18:56 | 49.43335 | -2.70386 | 6633 ft | 233 kts | 267° |
| 2026-05-06 18:56 | 49.43239 | -2.72866 | 6386 ft | 232 kts | 266° |
| 2026-05-06 18:56 | 49.43142 | -2.75334 | 6124 ft | 231 kts | 266° |
| 2026-05-06 18:57 | 49.43044 | -2.77801 | 5860 ft | 231 kts | 266° |
| 2026-05-06 18:57 | 49.43087 | -2.80256 | 5599 ft | 230 kts | 279° |
| 2026-05-06 18:57 | 49.43540 | -2.82601 | 5346 ft | 229 kts | 295° |
| 2026-05-06 18:57 | 49.44373 | -2.84681 | 5088 ft | 229 kts | 309° |
| 2026-05-06 18:58 | 49.45463 | -2.86476 | 4832 ft | 230 kts | 313° |
| 2026-05-06 18:58 | 49.46565 | -2.88255 | 4575 ft | 230 kts | 313° |
| 2026-05-06 18:58 | 49.47647 | -2.90011 | 4316 ft | 228 kts | 313° |
| 2026-05-06 18:58 | 49.48491 | -2.92047 | 4056 ft | 227 kts | 287° |
| 2026-05-06 18:59 | 49.48589 | -2.94445 | 3802 ft | 227 kts | 257° |
| 2026-05-06 18:59 | 49.47893 | -2.96598 | 3547 ft | 228 kts | 227° |
| 2026-05-06 18:59 | 49.46602 | -2.97939 | 3285 ft | 225 kts | 197° |
| 2026-05-06 18:59 | 49.45068 | -2.98124 | 3026 ft | 221 kts | 168° |
| 2026-05-06 19:00 | 49.43692 | -2.97161 | 2766 ft | 217 kts | 139° |
| 2026-05-06 19:00 | 49.42790 | -2.95348 | 2517 ft | 214 kts | 112° |
| 2026-05-06 19:00 | 49.42525 | -2.93132 | 2253 ft | 212 kts | 88° |
| 2026-05-06 19:00 | 49.42594 | -2.90894 | 2061 ft | 207 kts | 87° |
| 2026-05-06 19:01 | 49.42665 | -2.88714 | 2008 ft | 200 kts | 87° |
| 2026-05-06 19:01 | 49.42728 | -2.86663 | 2004 ft | 185 kts | 87° |
| 2026-05-06 19:01 | 49.42785 | -2.84764 | 2026 ft | 171 kts | 87° |
| 2026-05-06 19:01 | 49.42837 | -2.83013 | 2037 ft | 158 kts | 87° |
| 2026-05-06 19:02 | 49.42886 | -2.81358 | 2017 ft | 152 kts | 87° |
| 2026-05-06 19:02 | 49.42934 | -2.79749 | 2008 ft | 150 kts | 87° |
| 2026-05-06 19:02 | 49.42981 | -2.78148 | 2010 ft | 150 kts | 88° |
| 2026-05-06 19:02 | 49.43028 | -2.76549 | 2008 ft | 150 kts | 87° |
| 2026-05-06 19:03 | 49.43075 | -2.74945 | 1979 ft | 150 kts | 88° |
| 2026-05-06 19:03 | 49.43121 | -2.73345 | 1845 ft | 150 kts | 88° |
| 2026-05-06 19:03 | 49.43167 | -2.71757 | 1668 ft | 148 kts | 88° |
| 2026-05-06 19:03 | 49.43213 | -2.70170 | 1470 ft | 148 kts | 87° |
| 2026-05-06 19:04 | 49.43252 | -2.68654 | 1194 ft | 138 kts | 87° |
| 2026-05-06 19:04 | 49.43289 | -2.67207 | 974 ft | 134 kts | 87° |
| 2026-05-06 19:04 | 49.43333 | -2.65790 | 802 ft | 135 kts | 85° |
| 2026-05-06 19:04 | 49.43382 | -2.64347 | 613 ft | 136 kts | 86° |
| 2026-05-06 19:05 | 49.43419 | -2.62901 | 470 ft | 136 kts | 87° |
| 2026-05-06 19:05 | 49.43460 | -2.61483 | 338 ft | 129 kts | 86° |
| 2026-05-06 19:05 | 49.43504 | -2.60245 | 316 ft | 108 kts | 87° |
| 2026-05-06 19:05 | 49.43550 | -2.58937 | 588 ft | 132 kts | 88° |
| 2026-05-06 19:06 | 49.43574 | -2.57505 | 1015 ft | 131 kts | 91° |
| 2026-05-06 19:06 | 49.43242 | -2.56202 | 1256 ft | 139 kts | 130° |
| 2026-05-06 19:06 | 49.42374 | -2.55485 | 1517 ft | 149 kts | 168° |
| 2026-05-06 19:06 | 49.41347 | -2.55752 | 1811 ft | 155 kts | 205° |
| 2026-05-06 19:07 | 49.40630 | -2.56875 | 2012 ft | 138 kts | 244° |
| 2026-05-06 19:07 | 49.40510 | -2.58348 | 1929 ft | 146 kts | 271° |
| 2026-05-06 19:07 | 49.40543 | -2.59953 | 1928 ft | 152 kts | 271° |
| 2026-05-06 19:07 | 49.40559 | -2.61542 | 1920 ft | 147 kts | 269° |
| 2026-05-06 19:08 | 49.40539 | -2.63094 | 1834 ft | 144 kts | 266° |
| 2026-05-06 19:08 | 49.40490 | -2.64618 | 1670 ft | 142 kts | 265° |
| 2026-05-06 19:08 | 49.40666 | -2.66095 | 1403 ft | 146 kts | 307° |
| 2026-05-06 19:08 | 49.41503 | -2.66830 | 1186 ft | 140 kts | 2° |
| 2026-05-06 19:09 | 49.42368 | -2.66326 | 951 ft | 134 kts | 40° |
| 2026-05-06 19:09 | 49.42933 | -2.65218 | 738 ft | 131 kts | 57° |
| 2026-05-06 19:09 | 49.43337 | -2.63970 | 583 ft | 131 kts | 76° |
| 2026-05-06 19:09 | 49.43426 | -2.62638 | 446 ft | 125 kts | 88° |
| 2026-05-06 19:10 | 49.43466 | -2.61307 | 327 ft | 121 kts | 86° |
| 2026-05-06 19:10 | 49.43495 | -2.60249 | 312 ft | 62 kts | 88° |
| 2026-05-06 19:10 | 49.43511 | -2.59716 | 328 ft | 41 kts | 87° |
| 2026-05-06 19:10 | 49.43517 | -2.59491 | 333 ft | 15 kts | 86° |
| 2026-05-06 19:11 | 49.43523 | -2.59314 | 335 ft | 17 kts | 88° |
| 2026-05-06 19:11 | 49.43493 | -2.59199 | 334 ft | 9 kts | 167° |
| 2026-05-06 19:11 | 49.43438 | -2.59198 | 332 ft | 7 kts | 179° |
| 2026-05-06 19:11 | 49.43406 | -2.59195 | 332 ft | 2 kts | 179° |
| 2026-05-06 19:12 | 49.43389 | -2.59204 | 333 ft | 4 kts | 210° |
| 2026-05-06 19:12 | 49.43371 | -2.59269 | 333 ft | 9 kts | 263° |
| 2026-05-06 19:12 | 49.43369 | -2.59388 | 334 ft | 13 kts | 268° |
| 2026-05-06 19:12 | 49.43364 | -2.59543 | 328 ft | 17 kts | 268° |
| 2026-05-06 19:13 | 49.43359 | -2.59690 | 329 ft | 3 kts | 257° |
| 2026-05-06 19:13 | 49.43332 | -2.59689 | 327 ft | 6 kts | 172° |
| 2026-05-06 19:13 | 49.43283 | -2.59686 | 328 ft | 6 kts | 178° |
| 2026-05-06 19:13 | 49.43264 | -2.59685 | 328 ft | 2 kts | 177° |
| 2026-05-06 19:14 | 49.43257 | -2.59684 | 328 ft | 0 kts | 177° |
| 2026-05-06 19:14 | 49.43256 | -2.59684 | 328 ft | 0 kts | 177° |